Time;durP1;ratioP1;P1;durP2;ratioP2;P2;SDS_P1;SDS_P2;PMS_P1;PMS_P2;Temp;Humidity;BMP_temperature;BMP_pressure;BME280_temperature;BME280_humidity;BME280_pressure;Samples;Min_cycle;Max_cycle;Signal;HPM_P1;HPM_P2
2023/09/03 00:01:00;;;;;;;3.47;2.47;;;14.70;99.90;;;;;;5018093;28;20041;-34
2023/09/03 00:05:56;;;;;;;4.35;2.72;;;14.60;99.90;;;;;;5003669;28;20469;-36
2023/09/03 00:08:22;;;;;;;4.80;2.85;;;14.60;99.90;;;;;;5009812;22;20117;-35
2023/09/03 00:10:49;;;;;;;6.93;3.08;;;14.60;99.90;;;;;;4986387;28;20074;-34
2023/09/03 00:13:15;;;;;;;4.38;2.88;;;14.50;99.90;;;;;;5277123;22;20461;-35
2023/09/03 00:15:40;;;;;;;4.78;2.92;;;14.50;99.90;;;;;;5010213;28;20104;-34
2023/09/03 00:18:07;;;;;;;6.00;4.00;;;14.50;99.90;;;;;;5030795;22;20145;-34
2023/09/03 00:20:32;;;;;;;6.40;3.50;;;14.50;99.90;;;;;;5024145;28;20524;-34
2023/09/03 00:22:58;;;;;;;3.97;2.65;;;14.50;99.90;;;;;;5210289;22;20054;-84
2023/09/03 00:25:27;;;;;;;4.05;2.78;;;14.50;99.90;;;;;;4986254;28;20081;-84
2023/09/03 00:27:54;;;;;;;4.35;2.58;;;14.40;99.90;;;;;;4975386;28;20072;-90
2023/09/03 00:30:20;;;;;;;4.72;3.00;;;14.40;99.90;;;;;;4974127;28;20066;-87
2023/09/03 00:32:46;;;;;;;6.45;3.33;;;14.40;99.90;;;;;;5011464;28;20057;-88
2023/09/03 00:35:12;;;;;;;5.45;3.22;;;14.40;99.90;;;;;;4978651;28;20107;-88
2023/09/03 00:40:07;;;;;;;4.72;2.17;;;14.30;99.90;;;;;;5005842;28;20068;-35
2023/09/03 00:42:34;;;;;;;6.70;3.30;;;14.30;99.90;;;;;;5234894;22;20067;-32
2023/09/03 00:45:00;;;;;;;6.75;3.53;;;14.30;99.90;;;;;;5042870;28;20049;-32
2023/09/03 00:47:26;;;;;;;6.03;3.03;;;14.30;99.90;;;;;;5301037;22;20268;-33
2023/09/03 00:49:52;;;;;;;5.95;3.15;;;14.30;99.90;;;;;;4996388;28;20053;-33
2023/09/03 00:52:20;;;;;;;5.57;3.72;;;14.30;99.90;;;;;;5252051;22;20052;-34
2023/09/03 00:54:46;;;;;;;6.80;3.78;;;14.20;99.90;;;;;;5066206;28;20101;-35
2023/09/03 00:57:11;;;;;;;7.03;4.10;;;14.20;99.90;;;;;;5185071;22;20053;-34
2023/09/03 00:59:39;;;;;;;7.03;3.78;;;14.30;99.90;;;;;;5012460;28;20057;-34
2023/09/03 01:02:05;;;;;;;7.13;4.50;;;14.30;99.90;;;;;;5066559;23;20052;-34
2023/09/03 01:04:31;;;;;;;8.05;3.72;;;14.30;99.90;;;;;;5099098;22;20052;-34
2023/09/03 01:06:57;;;;;;;6.55;4.47;;;14.30;99.90;;;;;;5008154;28;20045;-35
2023/09/03 01:09:23;;;;;;;7.28;4.60;;;14.20;99.90;;;;;;5080329;22;20053;-33
2023/09/03 01:12:15;;;;;;;7.25;4.45;;;14.20;99.90;;;;;;5008828;28;20084;-33
2023/09/03 01:15:10;;;;;;;6.40;4.45;;;14.20;99.90;;;;;;5286810;22;20087;-36
2023/09/03 01:17:46;;;;;;;6.22;4.47;;;14.20;99.90;;;;;;4988181;28;20083;-33
2023/09/03 01:20:50;;;;;;;7.68;5.18;;;14.20;99.90;;;;;;5279404;23;20074;-34
2023/09/03 01:26:22;;;;;;;7.05;5.30;;;14.20;99.90;;;;;;5065476;22;20506;-34
2023/09/03 01:28:49;;;;;;;8.20;5.38;;;14.20;99.90;;;;;;5296882;22;20052;-34
2023/09/03 01:31:17;;;;;;;9.85;5.47;;;14.30;99.90;;;;;;5044291;28;20390;-34
2023/09/03 01:33:46;;;;;;;8.60;4.85;;;14.30;99.90;;;;;;5195739;22;20057;-85
2023/09/03 01:36:13;;;;;;;7.65;5.07;;;14.30;99.90;;;;;;5023498;28;20076;-85
2023/09/03 01:41:13;;;;;;;7.90;5.03;;;14.40;99.90;;;;;;5044181;28;20449;-33
2023/09/03 01:43:38;;;;;;;9.82;4.97;;;14.40;99.90;;;;;;5315968;22;20061;-34
2023/09/03 01:46:30;;;;;;;12.10;5.45;;;14.40;99.90;;;;;;5026442;28;20497;-34
2023/09/03 01:49:10;;;;;;;7.07;4.57;;;14.40;99.90;;;;;;5221390;22;20479;-34
2023/09/03 01:54:11;;;;;;;6.72;4.88;;;14.30;99.90;;;;;;5026353;22;20064;-91
2023/09/03 01:56:42;;;;;;;7.95;5.00;;;14.30;99.90;;;;;;4991435;28;20057;-89
2023/09/03 01:59:47;;;;;;;6.90;4.57;;;14.30;99.90;;;;;;5002732;28;20099;-83
2023/09/03 02:02:17;;;;;;;7.18;4.55;;;14.30;99.90;;;;;;4970591;28;21614;-83
2023/09/03 02:04:43;;;;;;;7.63;5.28;;;14.30;99.90;;;;;;4997324;28;20060;-83
2023/09/03 02:09:34;;;;;;;3.53;2.10;;;14.30;99.90;;;;;;5051918;22;20107;-34
2023/09/03 02:12:00;;;;;;;4.75;2.38;;;14.20;99.90;;;;;;5307979;22;20057;-34
2023/09/03 02:14:26;;;;;;;3.15;2.15;;;14.10;99.90;;;;;;5021604;28;20069;-34
2023/09/03 02:16:52;;;;;;;4.47;2.47;;;14.10;99.90;;;;;;5270238;22;20073;-34
2023/09/03 02:19:18;;;;;;;4.80;2.92;;;14.10;99.90;;;;;;5005271;28;20201;-34
2023/09/03 02:21:44;;;;;;;5.35;2.90;;;14.00;99.90;;;;;;5261482;22;20046;-34
2023/09/03 02:24:09;;;;;;;6.55;3.83;;;13.90;99.90;;;;;;5005327;28;20068;-35
2023/09/03 02:26:45;;;;;;;4.18;3.13;;;13.90;99.90;;;;;;5169782;23;20045;-83
2023/09/03 02:29:13;;;;;;;3.95;2.60;;;13.90;99.90;;;;;;5024434;28;20056;-82
2023/09/03 02:31:39;;;;;;;4.45;2.95;;;13.80;99.90;;;;;;4984939;28;20126;-88
2023/09/03 02:34:13;;;;;;;4.00;2.55;;;13.80;99.90;;;;;;5046709;28;20054;-88
2023/09/03 02:39:08;;;;;;;4.20;2.33;;;13.60;99.90;;;;;;4993227;28;20050;-35
2023/09/03 02:41:34;;;;;;;3.83;2.22;;;13.50;99.90;;;;;;5160152;22;20384;-35
2023/09/03 02:44:01;;;;;;;5.20;2.45;;;13.50;99.90;;;;;;5025675;28;20041;-35
2023/09/03 02:46:27;;;;;;;3.53;2.30;;;13.40;99.90;;;;;;5306813;22;20413;-34
2023/09/03 02:48:53;;;;;;;3.60;2.35;;;13.40;99.90;;;;;;5043339;28;20128;-34
2023/09/03 02:51:19;;;;;;;4.93;2.63;;;13.40;99.90;;;;;;5302405;22;20106;-34
2023/09/03 02:53:47;;;;;;;3.28;2.13;;;13.40;99.90;;;;;;5024398;28;20057;-42
2023/09/03 02:56:13;;;;;;;3.90;2.42;;;13.40;99.90;;;;;;5218508;22;20050;-85
2023/09/03 02:58:47;;;;;;;3.95;2.55;;;13.40;99.90;;;;;;5033623;28;20049;-83
2023/09/03 03:01:14;;;;;;;3.70;2.38;;;13.40;99.90;;;;;;4986989;28;20418;-83
2023/09/03 03:03:41;;;;;;;3.08;2.05;;;13.40;99.90;;;;;;5009947;28;20153;-83
2023/09/03 03:08:36;;;;;;;3.72;2.28;;;13.40;99.90;;;;;;5000906;28;20521;-35
2023/09/03 03:11:15;;;;;;;19.73;3.15;;;13.40;99.90;;;;;;5143609;22;20084;-34
2023/09/03 03:16:29;;;;;;;12.85;3.20;;;13.40;99.90;;;;;;5093954;22;20057;-34
2023/09/03 03:21:23;;;;;;;3.63;2.13;;;13.40;99.90;;;;;;5031053;28;20056;-35
2023/09/03 03:23:52;;;;;;;3.75;2.53;;;13.40;99.90;;;;;;5054047;22;20036;-83
2023/09/03 03:26:22;;;;;;;2.90;2.03;;;13.40;99.90;;;;;;5022454;28;20092;-90
2023/09/03 03:28:49;;;;;;;3.50;2.25;;;13.30;99.90;;;;;;5029023;28;20071;-89
2023/09/03 03:31:16;;;;;;;2.97;1.95;;;13.30;99.90;;;;;;5504036;22;20053;-34
2023/09/03 03:33:43;;;;;;;3.40;2.38;;;13.30;99.90;;;;;;5053301;22;20079;-37
2023/09/03 03:36:12;;;;;;;3.33;2.20;;;13.30;99.90;;;;;;5018994;28;20062;-36
2023/09/03 03:38:38;;;;;;;4.03;2.70;;;13.30;99.90;;;;;;5305692;22;20048;-35
2023/09/03 03:41:08;;;;;;;3.38;2.35;;;13.30;99.90;;;;;;5043788;28;20059;-35
2023/09/03 03:43:43;;;;;;;5.63;2.95;;;13.30;99.90;;;;;;5231361;22;20120;-89
2023/09/03 03:46:13;;;;;;;3.95;2.60;;;13.30;99.90;;;;;;5036977;28;20609;-89
2023/09/03 03:48:43;;;;;;;9.73;2.85;;;13.30;99.90;;;;;;5026982;28;20140;-89
2023/09/03 03:51:11;;;;;;;4.47;3.08;;;13.30;99.90;;;;;;5020590;28;20490;-90
2023/09/03 03:56:08;;;;;;;6.88;3.05;;;13.20;99.90;;;;;;5000309;28;20057;-35
2023/09/03 03:58:36;;;;;;;3.22;2.22;;;13.20;99.90;;;;;;5302357;22;20081;-36
2023/09/03 04:01:15;;;;;;;4.75;2.60;;;13.20;99.90;;;;;;5027611;28;20133;-35
2023/09/03 04:03:41;;;;;;;3.88;2.42;;;13.20;99.90;;;;;;5285516;22;20048;-34
2023/09/03 04:06:07;;;;;;;3.97;2.45;;;13.10;99.90;;;;;;5024283;28;20471;-35
2023/09/03 04:08:35;;;;;;;4.05;2.83;;;13.10;99.90;;;;;;5005606;22;20414;-35
2023/09/03 04:13:37;;;;;;;5.30;2.92;;;13.10;99.90;;;;;;5217723;22;20064;-33
2023/09/03 04:18:45;;;;;;;4.35;3.05;;;13.10;99.90;;;;;;4983308;28;20462;-34
2023/09/03 04:21:12;;;;;;;2.88;2.10;;;13.10;99.90;;;;;;5245394;22;20261;-34
2023/09/03 04:23:38;;;;;;;6.13;1.90;;;13.10;99.90;;;;;;5024717;28;20057;-34
2023/09/03 04:26:05;;;;;;;4.38;2.13;;;13.10;99.90;;;;;;5257477;22;20067;-34
2023/09/03 04:28:30;;;;;;;2.88;1.70;;;13.10;99.90;;;;;;5037955;28;20053;-34
2023/09/03 04:31:04;;;;;;;2.65;1.55;;;13.10;99.90;;;;;;5050783;22;20821;-35
2023/09/03 04:33:29;;;;;;;2.45;1.45;;;13.10;99.90;;;;;;5021559;28;20060;-34
2023/09/03 04:36:00;;;;;;;2.13;1.48;;;13.10;99.90;;;;;;5307737;22;20061;-35
2023/09/03 04:38:27;;;;;;;2.33;1.48;;;13.10;99.90;;;;;;5031280;28;20049;-34
2023/09/03 04:40:53;;;;;;;3.88;1.10;;;13.10;99.90;;;;;;5244029;22;20049;-35
2023/09/03 04:43:19;;;;;;;3.17;1.30;;;13.10;99.90;;;;;;5061723;28;20448;-34
2023/09/03 04:45:46;;;;;;;1.40;1.00;;;13.10;99.90;;;;;;5182210;22;20108;-89
2023/09/03 04:48:19;;;;;;;3.38;0.90;;;13.10;99.90;;;;;;5001807;28;20045;-89
2023/09/03 04:50:46;;;;;;;2.40;1.15;;;13.00;99.90;;;;;;5057543;23;20137;-34
2023/09/03 04:53:12;;;;;;;1.80;1.13;;;13.00;99.90;;;;;;5040309;28;20049;-34
2023/09/03 04:55:40;;;;;;;1.90;1.10;;;12.90;99.90;;;;;;5278833;22;20188;-33
2023/09/03 04:58:06;;;;;;;1.52;0.90;;;13.00;99.90;;;;;;5008070;28;20442;-33
2023/09/03 05:00:32;;;;;;;2.47;1.20;;;13.00;99.90;;;;;;5307257;22;20603;-34
2023/09/03 05:02:58;;;;;;;1.48;0.90;;;13.00;99.90;;;;;;5003543;28;20509;-33
2023/09/03 05:05:24;;;;;;;1.35;1.00;;;13.00;99.90;;;;;;5304249;22;20061;-33
2023/09/03 05:07:51;;;;;;;2.00;0.93;;;13.00;99.90;;;;;;5022602;28;20056;-33
2023/09/03 05:10:17;;;;;;;3.80;1.17;;;13.00;99.90;;;;;;5265230;22;20057;-35
2023/09/03 05:12:43;;;;;;;1.45;0.77;;;13.10;99.90;;;;;;5042510;28;20435;-35
2023/09/03 05:15:11;;;;;;;1.20;0.80;;;13.10;99.90;;;;;;5323274;22;20053;-35
2023/09/03 05:17:37;;;;;;;0.80;0.60;;;13.10;99.90;;;;;;5064401;28;20064;-35
2023/09/03 05:20:03;;;;;;;1.30;0.80;;;13.10;99.90;;;;;;5049425;22;20046;-35
2023/09/03 05:22:29;;;;;;;1.08;0.80;;;13.10;99.90;;;;;;5011936;28;20053;-35
2023/09/03 05:24:55;;;;;;;2.45;0.90;;;13.20;99.90;;;;;;5308253;22;20064;-35
2023/09/03 05:27:20;;;;;;;1.40;0.88;;;13.20;99.90;;;;;;5040962;28;20076;-33
2023/09/03 05:29:46;;;;;;;1.10;0.80;;;13.20;99.90;;;;;;5035495;22;20057;-41
2023/09/03 05:34:57;;;;;;;1.35;0.95;;;13.30;99.90;;;;;;5166467;22;20054;-86
2023/09/03 05:37:23;;;;;;;2.97;1.30;;;13.30;99.90;;;;;;4984396;28;20503;-88
2023/09/03 05:39:52;;;;;;;1.73;1.08;;;13.40;99.90;;;;;;4990884;28;20105;-89
2023/09/03 05:42:21;;;;;;;1.85;1.20;;;13.40;99.90;;;;;;4981884;28;20493;-89
2023/09/03 05:44:48;;;;;;;1.60;1.20;;;13.40;99.90;;;;;;5057287;23;20065;-35
2023/09/03 05:49:56;;;;;;;2.00;1.33;;;13.40;99.90;;;;;;5016852;22;19921;-34
2023/09/03 05:54:54;;;;;;;1.50;0.90;;;13.50;99.90;;;;;;5021198;28;20069;-35
2023/09/03 05:57:20;;;;;;;2.13;0.80;;;13.60;99.90;;;;;;5298563;22;21610;-32
2023/09/03 05:59:52;;;;;;;2.83;1.20;;;13.60;99.90;;;;;;4987914;28;20074;-35
2023/09/03 06:02:18;;;;;;;1.57;1.00;;;13.50;99.90;;;;;;5232357;22;20106;-34
2023/09/03 06:04:44;;;;;;;1.77;1.00;;;13.50;99.90;;;;;;5025701;28;20050;-34
2023/09/03 06:07:13;;;;;;;1.73;1.10;;;13.50;99.90;;;;;;5242888;22;20355;-85
2023/09/03 06:09:45;;;;;;;2.80;1.60;;;13.60;99.90;;;;;;5021689;28;20056;-84
2023/09/03 06:12:14;;;;;;;3.55;1.38;;;13.60;99.90;;;;;;5020683;28;20057;-83
2023/09/03 06:14:39;;;;;;;2.85;1.40;;;13.70;99.90;;;;;;5003439;28;20068;-83
2023/09/03 06:17:07;;;;;;;3.03;1.92;;;13.70;99.90;;;;;;5026795;28;20049;-84
2023/09/03 06:19:36;;;;;;;4.10;2.05;;;13.80;99.90;;;;;;4981574;28;20437;-83
2023/09/03 06:22:02;;;;;;;3.22;2.00;;;13.80;99.90;;;;;;5003835;28;20157;-84
2023/09/03 06:24:28;;;;;;;4.28;2.28;;;13.90;99.90;;;;;;5123010;23;20057;-34
2023/09/03 06:26:53;;;;;;;3.67;2.42;;;14.00;99.90;;;;;;5249050;22;20049;-33
2023/09/03 06:29:19;;;;;;;4.57;2.42;;;14.00;99.90;;;;;;5009236;28;20052;-34
2023/09/03 06:31:45;;;;;;;4.47;2.85;;;14.20;99.90;;;;;;5311241;22;20057;-35
2023/09/03 06:34:10;;;;;;;5.55;3.00;;;14.20;99.90;;;;;;5029799;28;20059;-35
2023/09/03 06:36:36;;;;;;;7.18;3.30;;;14.30;99.90;;;;;;5219702;22;20056;-35
2023/09/03 06:39:03;;;;;;;5.93;3.20;;;14.40;99.90;;;;;;5039472;28;20409;-34
2023/09/03 06:41:28;;;;;;;6.15;3.60;;;14.50;99.90;;;;;;5288565;22;20038;-34
2023/09/03 06:43:55;;;;;;;5.30;3.55;;;14.60;99.90;;;;;;5022176;28;20053;-35
2023/09/03 06:46:21;;;;;;;5.75;3.50;;;14.70;99.90;;;;;;5297875;22;20468;-35
2023/09/03 06:48:47;;;;;;;6.03;3.33;;;14.70;99.90;;;;;;5023012;28;20057;-34
2023/09/03 06:51:12;;;;;;;8.50;3.92;;;14.80;99.90;;;;;;5263880;22;20053;-34
2023/09/03 06:53:38;;;;;;;4.90;3.15;;;14.90;99.90;;;;;;5023235;28;20050;-34
2023/09/03 06:56:04;;;;;;;6.53;3.53;;;14.90;99.90;;;;;;5245432;22;20054;-33
2023/09/03 06:58:29;;;;;;;5.13;3.55;;;14.90;99.90;;;;;;5002859;28;20480;-34
2023/09/03 07:00:56;;;;;;;5.28;3.03;;;14.90;99.90;;;;;;5090001;22;20058;-85
2023/09/03 07:03:22;;;;;;;4.65;3.35;;;14.90;99.90;;;;;;4995570;28;20591;-82
2023/09/03 07:08:17;;;;;;;5.30;3.60;;;15.00;99.90;;;;;;5019221;28;20057;-35
2023/09/03 07:10:42;;;;;;;5.75;3.67;;;15.00;99.90;;;;;;5060986;22;20069;-35
2023/09/03 07:13:09;;;;;;;5.35;3.55;;;15.10;99.90;;;;;;5002540;28;20045;-35
2023/09/03 07:15:36;;;;;;;7.93;4.70;;;15.20;99.90;;;;;;5062064;22;20059;-84
2023/09/03 07:18:02;;;;;;;6.20;3.97;;;15.40;99.90;;;;;;5014539;28;20057;-84
2023/09/03 07:20:28;;;;;;;7.75;4.68;;;15.40;99.90;;;;;;5180073;22;20072;-35
2023/09/03 07:25:35;;;;;;;7.75;4.07;;;15.50;99.90;;;;;;5265671;22;20057;-34
2023/09/03 07:30:39;;;;;;;7.30;4.97;;;15.70;99.90;;;;;;5129255;22;20072;-34
2023/09/03 07:33:04;;;;;;;9.00;5.70;;;15.80;99.90;;;;;;5052810;22;20068;-33
2023/09/03 07:35:31;;;;;;;9.70;5.00;;;15.80;99.90;;;;;;5058359;22;20056;-34
2023/09/03 07:40:39;;;;;;;5.95;3.90;;;16.10;99.90;;;;;;5042316;22;20119;-34
2023/09/03 07:45:57;;;;;;;8.93;4.55;;;16.20;99.90;;;;;;5136517;22;20553;-34
2023/09/03 07:50:52;;;;;;;5.75;3.83;;;16.40;99.90;;;;;;5310930;22;20068;-33
2023/09/03 07:56:07;;;;;;;6.85;5.03;;;16.60;99.90;;;;;;5482712;22;20175;-34
2023/09/03 07:58:33;;;;;;;7.15;4.65;;;16.80;99.90;;;;;;5039473;28;20060;-35
2023/09/03 08:00:58;;;;;;;8.57;4.60;;;16.90;99.90;;;;;;5385347;22;20141;-36
2023/09/03 08:05:53;;;;;;;5.35;3.97;;;17.00;99.90;;;;;;5244649;22;20057;-34
2023/09/03 08:08:19;;;;;;;6.75;3.88;;;17.10;99.90;;;;;;5026400;28;20064;-34
2023/09/03 08:10:45;;;;;;;7.50;4.35;;;17.20;99.90;;;;;;5260621;22;20444;-33
2023/09/03 08:13:10;;;;;;;7.53;5.07;;;17.30;99.90;;;;;;5015290;28;20516;-34
2023/09/03 08:15:36;;;;;;;4.20;3.05;;;17.40;99.90;;;;;;5113177;22;20053;-33
2023/09/03 08:18:02;;;;;;;8.52;4.88;;;17.50;99.90;;;;;;5018099;28;20072;-33
2023/09/03 08:20:28;;;;;;;7.43;4.40;;;17.60;99.90;;;;;;5358301;22;20065;-33
2023/09/03 08:22:54;;;;;;;6.00;3.97;;;17.60;99.90;;;;;;5015342;28;20163;-33
2023/09/03 08:25:19;;;;;;;7.47;4.57;;;17.70;99.90;;;;;;5317244;22;20148;-34
2023/09/03 08:27:45;;;;;;;5.05;3.03;;;17.70;99.90;;;;;;4997935;28;20080;-33
2023/09/03 08:30:11;;;;;;;6.07;3.80;;;17.80;99.90;;;;;;5219238;23;20063;-34
2023/09/03 08:32:37;;;;;;;3.92;2.92;;;17.90;99.90;;;;;;4994913;28;20058;-34
2023/09/03 08:35:03;;;;;;;6.68;3.95;;;17.90;99.90;;;;;;5236040;23;20058;-34
2023/09/03 08:37:29;;;;;;;5.60;3.50;;;18.00;99.90;;;;;;5002065;28;20053;-34
2023/09/03 08:39:54;;;;;;;6.22;3.85;;;18.00;99.90;;;;;;5181290;23;20141;-33
2023/09/03 08:42:21;;;;;;;5.38;2.95;;;18.10;99.90;;;;;;5004334;28;20486;-33
2023/09/03 08:44:53;;;;;;;6.13;3.45;;;18.10;99.90;;;;;;5013788;23;20808;-33
2023/09/03 08:47:18;;;;;;;8.45;3.45;;;18.20;99.90;;;;;;5000117;28;20042;-36
2023/09/03 08:49:45;;;;;;;7.85;3.33;;;18.20;99.90;;;;;;5155939;23;20063;-33
2023/09/03 08:54:46;;;;;;;7.00;4.13;;;18.20;99.90;;;;;;5187450;22;21807;-34
2023/09/03 08:59:46;;;;;;;5.43;3.97;;;18.30;99.90;;;;;;5025187;22;20053;-34
2023/09/03 09:04:47;;;;;;;7.32;3.95;;;18.40;99.90;;;;;;5074977;22;20061;-33
2023/09/03 09:09:45;;;;;;;5.25;3.38;;;18.50;99.90;;;;;;5002442;28;20084;-33
2023/09/03 09:12:27;;;;;;;6.72;4.25;;;18.50;99.90;;;;;;5197700;22;20074;-33
2023/09/03 09:15:04;;;;;;;10.05;4.00;;;18.60;99.90;;;;;;5018458;28;20053;-33
2023/09/03 09:17:43;;;;;;;4.93;3.47;;;18.60;99.90;;;;;;5044811;22;20041;-33
2023/09/03 09:20:12;;;;;;;7.72;4.35;;;18.70;99.90;;;;;;5042761;28;20048;-33
2023/09/03 09:22:46;;;;;;;4.93;2.40;;;18.70;99.90;;;;;;5093136;22;20045;-34
2023/09/03 09:28:10;;;;;;;4.28;2.45;;;18.90;99.90;;;;;;5028718;22;20061;-32
2023/09/03 09:30:35;;;;;;;4.15;2.53;;;19.00;99.90;;;;;;5209733;22;20048;-32
2023/09/03 09:33:02;;;;;;;5.28;2.75;;;19.10;99.90;;;;;;5027516;28;20417;-35
2023/09/03 09:35:28;;;;;;;4.18;2.42;;;19.20;99.90;;;;;;5209060;22;20141;-32
2023/09/03 09:37:54;;;;;;;4.72;2.60;;;19.30;99.90;;;;;;5028659;28;20585;-33
2023/09/03 09:40:28;;;;;;;3.67;2.10;;;19.40;99.90;;;;;;5380996;22;20424;-33
2023/09/03 09:42:56;;;;;;;4.35;1.90;;;19.50;99.90;;;;;;5044727;28;20532;-33
2023/09/03 09:45:22;;;;;;;3.95;2.42;;;19.60;99.90;;;;;;5201148;22;20555;-33
2023/09/03 09:48:09;;;;;;;4.95;2.72;;;19.60;99.90;;;;;;5040117;28;20061;-33
2023/09/03 09:50:40;;;;;;;5.45;2.72;;;19.70;99.90;;;;;;5371233;22;20472;-34
2023/09/03 09:53:19;;;;;;;3.92;2.40;;;19.80;99.90;;;;;;5047400;28;20049;-34
2023/09/03 09:55:45;;;;;;;4.03;1.85;;;19.90;99.90;;;;;;5145630;22;20061;-87
2023/09/03 09:58:12;;;;;;;5.57;2.50;;;20.00;99.90;;;;;;5045045;28;20053;-87
2023/09/03 10:00:43;;;;;;;4.00;2.35;;;20.10;99.90;;;;;;5059287;22;20129;-32
2023/09/03 10:06:07;;;;;;;4.85;2.63;;;20.30;99.90;;;;;;5101693;22;20049;-86
2023/09/03 10:08:35;;;;;;;5.35;2.10;;;20.30;99.90;;;;;;4990529;28;20049;-87
2023/09/03 10:11:00;;;;;;;5.72;1.95;;;20.40;99.90;;;;;;5024596;28;20081;-85
2023/09/03 10:13:26;;;;;;;3.33;1.70;;;20.60;99.90;;;;;;5026493;28;20608;-87
2023/09/03 10:15:52;;;;;;;2.67;1.15;;;20.60;99.90;;;;;;5061712;22;20115;-33
2023/09/03 10:20:56;;;;;;;4.68;2.20;;;20.60;99.90;;;;;;5163986;22;20094;-34
2023/09/03 10:26:13;;;;;;;2.97;1.90;;;20.70;99.90;;;;;;5069834;22;20053;-35
2023/09/03 10:28:44;;;;;;;3.40;1.52;;;20.70;99.90;;;;;;5053381;22;20123;-86
2023/09/03 10:31:11;;;;;;;2.17;1.23;;;20.70;99.90;;;;;;5256903;22;20054;-33
2023/09/03 10:33:40;;;;;;;4.03;1.90;;;20.70;99.90;;;;;;5318610;22;20271;-34
2023/09/03 10:36:18;;;;;;;3.33;1.70;;;20.80;99.90;;;;;;5019306;28;20750;-34
2023/09/03 10:38:44;;;;;;;2.70;1.23;;;20.90;99.90;;;;;;5131501;22;20049;-34
2023/09/03 10:41:17;;;;;;;5.38;1.60;;;20.90;99.90;;;;;;5023061;28;20129;-34
2023/09/03 10:43:45;;;;;;;5.72;2.17;;;21.10;99.90;;;;;;5042402;22;20052;-33
2023/09/03 10:46:11;;;;;;;3.25;1.65;;;21.20;99.90;;;;;;5012771;28;20056;-34
2023/09/03 10:48:37;;;;;;;5.95;1.83;;;21.30;99.90;;;;;;5410287;22;20056;-34
2023/09/03 10:51:04;;;;;;;2.97;1.73;;;21.30;99.90;;;;;;5041656;28;20507;-34
2023/09/03 10:53:38;;;;;;;2.80;1.55;;;21.40;99.90;;;;;;5451205;22;20559;-33
2023/09/03 10:56:08;;;;;;;4.28;2.10;;;21.40;99.90;;;;;;5036279;28;20049;-33
2023/09/03 10:58:34;;;;;;;2.72;1.38;;;21.50;99.90;;;;;;5100290;22;20063;-34
2023/09/03 11:01:21;;;;;;;3.92;1.40;;;21.60;99.90;;;;;;5034404;28;20128;-34
2023/09/03 11:03:55;;;;;;;3.40;1.77;;;21.80;99.90;;;;;;5191828;22;20133;-34
2023/09/03 11:09:02;;;;;;;3.30;1.42;;;21.90;99.90;;;;;;5004279;28;20054;-33
2023/09/03 11:11:30;;;;;;;4.40;1.50;;;22.00;99.90;;;;;;5019179;22;20076;-33
2023/09/03 11:13:56;;;;;;;4.00;1.50;;;22.10;99.90;;;;;;5023464;28;20566;-33
2023/09/03 11:16:42;;;;;;;2.10;1.38;;;22.20;99.90;;;;;;5357875;22;20151;-86
2023/09/03 11:19:38;;;;;;;4.13;1.70;;;22.20;99.90;;;;;;5038948;28;20045;-85
2023/09/03 11:24:45;;;;;;;3.22;1.50;;;22.40;99.90;;;;;;5019048;28;20057;-35
2023/09/03 11:27:10;;;;;;;3.28;1.27;;;22.40;99.90;;;;;;5166676;22;20077;-35
2023/09/03 11:29:36;;;;;;;1.70;0.98;;;22.40;99.90;;;;;;4991168;28;20076;-34
2023/09/03 11:32:02;;;;;;;3.17;1.67;;;22.50;99.90;;;;;;5194681;22;20417;-35
2023/09/03 11:37:10;;;;;;;2.63;1.17;;;22.60;99.90;;;;;;5055747;22;20061;-86
2023/09/03 11:39:41;;;;;;;1.90;0.73;;;22.70;99.90;;;;;;5007927;28;20041;-87
2023/09/03 11:42:13;;;;;;;1.45;0.90;;;22.70;99.90;;;;;;5007643;23;20049;-33
2023/09/03 11:47:07;;;;;;;1.75;0.90;;;22.90;99.90;;;;;;5016359;28;20053;-35
2023/09/03 11:52:12;;;;;;;2.03;1.02;;;22.90;99.90;;;;;;4993547;28;20062;-32
2023/09/03 11:54:38;;;;;;;2.47;0.80;;;22.90;99.90;;;;;;5019943;22;20107;-85
2023/09/03 11:57:06;;;;;;;1.40;0.80;;;22.90;99.90;;;;;;5027224;22;20062;-35
2023/09/03 12:02:08;;;;;;;1.67;0.55;;;23.00;99.90;;;;;;5075110;22;20060;-34
2023/09/03 12:04:35;;;;;;;1.17;0.50;;;23.10;99.90;;;;;;5041465;22;20053;-85
2023/09/03 12:07:12;;;;;;;1.48;0.60;;;23.20;99.90;;;;;;4988639;28;20125;-85
2023/09/03 12:09:39;;;;;;;1.05;0.50;;;23.30;99.90;;;;;;5029598;28;20052;-85
2023/09/03 12:12:05;;;;;;;1.77;0.63;;;23.30;99.90;;;;;;5037589;28;20135;-86
2023/09/03 12:14:38;;;;;;;2.80;0.50;;;23.30;99.90;;;;;;5035369;28;20057;-85
2023/09/03 12:17:04;;;;;;;2.65;0.70;;;23.20;99.90;;;;;;5034591;28;20053;-87
2023/09/03 12:19:42;;;;;;;2.17;0.95;;;23.20;99.90;;;;;;5038354;28;20048;-86
2023/09/03 12:22:08;;;;;;;2.10;0.63;;;23.30;99.90;;;;;;4982033;22;1288340;-33
2023/09/03 12:24:34;;;;;;;0.70;0.50;;;23.40;99.90;;;;;;5079474;22;20057;-35
2023/09/03 12:27:05;;;;;;;1.55;0.60;;;23.50;99.90;;;;;;5027567;28;20075;-35
2023/09/03 12:29:40;;;;;;;2.55;0.70;;;23.60;99.90;;;;;;5093200;22;20172;-33
2023/09/03 12:32:07;;;;;;;1.83;0.63;;;23.70;99.90;;;;;;5012750;28;20057;-33
2023/09/03 12:34:39;;;;;;;2.22;1.05;;;23.90;99.90;;;;;;5104054;22;20111;-33
2023/09/03 12:37:07;;;;;;;3.58;1.30;;;24.00;99.90;;;;;;5022801;28;20131;-33
2023/09/03 12:39:35;;;;;;;1.92;0.90;;;24.20;99.90;;;;;;5082166;22;20053;-34
2023/09/03 12:44:43;;;;;;;;;;;24.40;99.90;;;;;;4788609;22;20616;-33
2023/09/03 12:49:44;;;;;;;1.55;0.68;;;24.60;99.90;;;;;;5081991;22;21260;-33
2023/09/03 12:54:45;;;;;;;1.27;0.50;;;25.00;99.90;;;;;;5159282;22;20058;-34
2023/09/03 12:59:45;;;;;;;2.13;0.52;;;25.40;99.90;;;;;;5117696;22;20061;-33
2023/09/03 13:04:46;;;;;;;1.85;0.52;;;26.20;99.90;;;;;;5029152;22;20069;-35
2023/09/03 13:07:11;;;;;;;0.70;0.50;;;26.70;99.90;;;;;;5167635;22;20033;-35
2023/09/03 13:09:37;;;;;;;1.10;0.70;;;27.10;99.90;;;;;;5002825;28;20411;-34
2023/09/03 13:14:30;;;;;;;1.00;0.57;;;27.40;99.90;;;;;;5015146;28;20116;-33
2023/09/03 13:16:59;;;;;;;0.93;0.52;;;27.50;99.90;;;;;;5069307;22;20434;-86
2023/09/03 13:19:25;;;;;;;1.60;0.60;;;27.80;99.90;;;;;;5362223;22;20055;-34
2023/09/03 13:21:51;;;;;;;1.52;0.55;;;28.30;99.90;;;;;;5060191;22;20025;-35
2023/09/03 13:24:16;;;;;;;1.27;0.50;;;28.70;99.90;;;;;;5045014;28;20139;-35
2023/09/03 13:29:14;;;;;;;0.98;0.50;;;28.90;99.90;;;;;;5021003;28;20417;-33
2023/09/03 13:31:43;;;;;;;0.88;0.50;;;28.90;99.90;;;;;;5056205;22;20049;-94
2023/09/03 13:34:13;;;;;;;0.40;0.40;;;28.70;99.90;;;;;;4999675;28;20057;-86
2023/09/03 13:36:40;;;;;;;0.77;0.40;;;28.40;99.90;;;;;;4999636;28;20172;-89
2023/09/03 13:39:06;;;;;;;0.77;0.57;;;28.10;99.90;;;;;;5001984;28;20741;-86
2023/09/03 13:41:32;;;;;;;0.88;0.40;;;28.20;99.90;;;;;;5007578;28;20148;-87
2023/09/03 13:43:58;;;;;;;1.08;0.50;;;28.90;99.90;;;;;;5000703;28;20137;-86
2023/09/03 13:46:29;;;;;;;0.85;0.43;;;29.80;99.90;;;;;;5001539;28;20078;-87
2023/09/03 13:48:55;;;;;;;1.15;0.47;;;30.40;99.90;;;;;;4996387;28;20061;-88
2023/09/03 13:51:20;;;;;;;1.33;0.70;;;30.50;99.90;;;;;;5008067;28;20092;-88
2023/09/03 13:53:47;;;;;;;1.20;0.40;;;30.40;99.90;;;;;;4985397;28;20511;-86
2023/09/03 13:56:13;;;;;;;1.95;0.50;;;30.30;99.90;;;;;;5003463;28;20046;-86
2023/09/03 13:58:39;;;;;;;1.02;0.77;;;30.10;99.90;;;;;;5030990;23;20391;-34
2023/09/03 14:03:55;;;;;;;1.00;0.73;;;29.40;99.90;;;;;;5160834;22;20057;-33
2023/09/03 14:08:56;;;;;;;4.20;0.75;;;28.50;99.90;;;;;;5177112;22;20060;-33
2023/09/03 14:13:52;;;;;;;0.77;0.60;;;28.00;99.90;;;;;;5001316;28;20061;-86
2023/09/03 14:16:20;;;;;;;0.90;0.63;;;27.80;99.90;;;;;;4973765;28;20054;-86
2023/09/03 14:18:46;;;;;;;1.70;0.63;;;27.70;99.90;;;;;;4977977;28;20046;-86
2023/09/03 14:21:11;;;;;;;1.23;0.75;;;27.80;99.90;;;;;;5003460;28;20045;-85
2023/09/03 14:23:37;;;;;;;1.55;0.63;;;28.00;99.90;;;;;;5668765;22;20019;-33
2023/09/03 14:28:31;;;;;;;1.05;0.70;;;28.40;99.90;;;;;;5022346;28;20041;-34
2023/09/03 14:31:00;;;;;;;0.90;0.70;;;28.40;99.90;;;;;;5175524;22;20930;-33
2023/09/03 14:33:26;;;;;;;0.70;0.60;;;28.40;99.90;;;;;;5042891;28;20520;-33
2023/09/03 14:35:51;;;;;;;1.00;0.70;;;28.30;99.90;;;;;;5359814;22;20038;-33
2023/09/03 14:38:17;;;;;;;0.77;0.50;;;28.70;99.90;;;;;;4993677;28;20049;-33
2023/09/03 14:40:52;;;;;;;0.82;0.50;;;29.70;99.90;;;;;;5023334;22;20136;-33
2023/09/03 14:43:17;;;;;;;1.23;0.40;;;30.70;99.90;;;;;;5025151;28;20045;-33
2023/09/03 14:45:43;;;;;;;0.40;0.30;;;31.20;99.90;;;;;;5312078;22;20046;-88
2023/09/03 14:48:12;;;;;;;1.02;0.45;;;31.10;99.90;;;;;;4996498;28;20060;-88
2023/09/03 14:50:40;;;;;;;0.98;0.50;;;30.90;99.90;;;;;;5042322;22;20128;-34
2023/09/03 14:53:06;;;;;;;0.73;0.40;;;30.60;99.90;;;;;;5024509;28;20049;-33
2023/09/03 14:55:32;;;;;;;0.70;0.40;;;30.40;99.90;;;;;;5352582;22;20064;-32
2023/09/03 14:57:58;;;;;;;1.58;0.90;;;30.00;99.90;;;;;;5041793;28;20063;-33
2023/09/03 15:02:52;;;;;;;0.93;0.70;;;29.10;99.90;;;;;;4996832;28;20509;-34